sensor_id;sensor_type;location;lat;lon;timestamp;temperature;humidity
18898;DHT22;9581;49.484;8.556;2024-01-10T00:01:16;-2.00;74.30
18898;DHT22;9581;49.484;8.556;2024-01-10T00:03:42;-2.10;74.90
18898;DHT22;9581;49.484;8.556;2024-01-10T00:06:10;-2.10;75.60
18898;DHT22;9581;49.484;8.556;2024-01-10T00:08:37;-2.20;74.40
18898;DHT22;9581;49.484;8.556;2024-01-10T00:11:04;-2.20;74.90
18898;DHT22;9581;49.484;8.556;2024-01-10T00:13:32;-2.20;74.80
18898;DHT22;9581;49.484;8.556;2024-01-10T00:15:59;-2.20;75.00
18898;DHT22;9581;49.484;8.556;2024-01-10T00:18:26;-2.20;75.30
18898;DHT22;9581;49.484;8.556;2024-01-10T00:20:52;-2.10;75.50
18898;DHT22;9581;49.484;8.556;2024-01-10T00:23:19;-2.00;73.90
18898;DHT22;9581;49.484;8.556;2024-01-10T00:25:46;-2.00;73.90
18898;DHT22;9581;49.484;8.556;2024-01-10T00:28:13;-2.30;73.60
18898;DHT22;9581;49.484;8.556;2024-01-10T00:30:43;-2.30;74.60
18898;DHT22;9581;49.484;8.556;2024-01-10T00:33:10;-2.30;74.00
18898;DHT22;9581;49.484;8.556;2024-01-10T00:35:37;-2.20;74.50
18898;DHT22;9581;49.484;8.556;2024-01-10T00:38:04;-2.00;72.80
18898;DHT22;9581;49.484;8.556;2024-01-10T00:40:31;-1.90;73.00
18898;DHT22;9581;49.484;8.556;2024-01-10T00:42:57;-2.00;72.50
18898;DHT22;9581;49.484;8.556;2024-01-10T00:45:24;-1.90;72.00
18898;DHT22;9581;49.484;8.556;2024-01-10T00:47:52;-1.90;72.10
18898;DHT22;9581;49.484;8.556;2024-01-10T00:50:19;-2.00;72.10
18898;DHT22;9581;49.484;8.556;2024-01-10T00:52:46;-2.10;72.40
18898;DHT22;9581;49.484;8.556;2024-01-10T00:55:13;-1.90;72.40
18898;DHT22;9581;49.484;8.556;2024-01-10T00:57:39;-1.70;72.30
18898;DHT22;9581;49.484;8.556;2024-01-10T01:00:07;-1.60;71.70
18898;DHT22;9581;49.484;8.556;2024-01-10T01:02:34;-1.60;71.30
18898;DHT22;9581;49.484;8.556;2024-01-10T01:05:02;-1.60;71.20
18898;DHT22;9581;49.484;8.556;2024-01-10T01:07:29;-1.60;71.60
18898;DHT22;9581;49.484;8.556;2024-01-10T01:09:56;-1.50;71.80
18898;DHT22;9581;49.484;8.556;2024-01-10T01:12:22;-1.50;72.00
18898;DHT22;9581;49.484;8.556;2024-01-10T01:14:49;-1.40;71.70
18898;DHT22;9581;49.484;8.556;2024-01-10T01:17:16;-1.50;72.00
18898;DHT22;9581;49.484;8.556;2024-01-10T01:19:42;-1.50;72.50
18898;DHT22;9581;49.484;8.556;2024-01-10T01:22:10;-1.50;74.00
18898;DHT22;9581;49.484;8.556;2024-01-10T01:24:37;-1.50;73.40
18898;DHT22;9581;49.484;8.556;2024-01-10T01:27:04;-1.50;74.20
18898;DHT22;9581;49.484;8.556;2024-01-10T01:29:30;-1.60;73.60
18898;DHT22;9581;49.484;8.556;2024-01-10T01:31:57;-1.70;74.00
18898;DHT22;9581;49.484;8.556;2024-01-10T01:34:24;-1.70;73.40
18898;DHT22;9581;49.484;8.556;2024-01-10T01:36:50;-1.50;73.20
18898;DHT22;9581;49.484;8.556;2024-01-10T01:39:19;-1.70;73.10
18898;DHT22;9581;49.484;8.556;2024-01-10T01:41:45;-1.50;73.00
18898;DHT22;9581;49.484;8.556;2024-01-10T01:44:13;-1.70;74.00
18898;DHT22;9581;49.484;8.556;2024-01-10T01:46:40;-1.80;75.80
18898;DHT22;9581;49.484;8.556;2024-01-10T01:49:06;-2.00;77.70
18898;DHT22;9581;49.484;8.556;2024-01-10T01:51:34;-1.90;78.20
18898;DHT22;9581;49.484;8.556;2024-01-10T01:54:05;-1.90;77.20
18898;DHT22;9581;49.484;8.556;2024-01-10T01:56:35;-1.80;76.60
18898;DHT22;9581;49.484;8.556;2024-01-10T01:59:02;-1.60;76.50
18898;DHT22;9581;49.484;8.556;2024-01-10T02:01:29;-1.60;76.10
18898;DHT22;9581;49.484;8.556;2024-01-10T02:03:56;-1.40;76.40
18898;DHT22;9581;49.484;8.556;2024-01-10T02:06:23;-1.20;76.10
18898;DHT22;9581;49.484;8.556;2024-01-10T02:08:50;-1.40;76.50
18898;DHT22;9581;49.484;8.556;2024-01-10T02:11:17;-1.70;78.00
18898;DHT22;9581;49.484;8.556;2024-01-10T02:13:47;-1.70;77.90
18898;DHT22;9581;49.484;8.556;2024-01-10T02:16:14;-1.20;77.60
18898;DHT22;9581;49.484;8.556;2024-01-10T02:18:41;-1.00;77.20
18898;DHT22;9581;49.484;8.556;2024-01-10T02:21:08;-1.00;77.30
18898;DHT22;9581;49.484;8.556;2024-01-10T02:23:34;-1.00;77.10
18898;DHT22;9581;49.484;8.556;2024-01-10T02:26:02;-1.20;77.50
18898;DHT22;9581;49.484;8.556;2024-01-10T02:28:29;-1.10;77.90
18898;DHT22;9581;49.484;8.556;2024-01-10T02:30:56;-1.10;77.70
18898;DHT22;9581;49.484;8.556;2024-01-10T02:33:23;-1.40;78.40
18898;DHT22;9581;49.484;8.556;2024-01-10T02:35:50;-1.50;80.80
18898;DHT22;9581;49.484;8.556;2024-01-10T02:38:17;-1.60;78.60
18898;DHT22;9581;49.484;8.556;2024-01-10T02:40:46;-1.90;76.50
18898;DHT22;9581;49.484;8.556;2024-01-10T02:43:14;-1.70;77.50
18898;DHT22;9581;49.484;8.556;2024-01-10T02:45:41;-1.50;76.20
18898;DHT22;9581;49.484;8.556;2024-01-10T02:48:08;-1.80;77.10
18898;DHT22;9581;49.484;8.556;2024-01-10T02:50:34;-1.70;76.60
18898;DHT22;9581;49.484;8.556;2024-01-10T02:53:03;-1.60;76.30
18898;DHT22;9581;49.484;8.556;2024-01-10T02:55:30;-1.80;75.90
18898;DHT22;9581;49.484;8.556;2024-01-10T02:57:57;-1.80;75.90
18898;DHT22;9581;49.484;8.556;2024-01-10T03:00:25;-1.80;76.10
18898;DHT22;9581;49.484;8.556;2024-01-10T03:02:51;-1.90;76.00
18898;DHT22;9581;49.484;8.556;2024-01-10T03:05:18;-1.80;76.00
18898;DHT22;9581;49.484;8.556;2024-01-10T03:07:45;-1.80;76.90
18898;DHT22;9581;49.484;8.556;2024-01-10T03:10:11;-1.80;76.00
18898;DHT22;9581;49.484;8.556;2024-01-10T03:12:38;-1.80;75.70
18898;DHT22;9581;49.484;8.556;2024-01-10T03:15:06;-1.80;75.20
18898;DHT22;9581;49.484;8.556;2024-01-10T03:17:34;-1.80;75.60
18898;DHT22;9581;49.484;8.556;2024-01-10T03:20:01;-1.80;75.20
18898;DHT22;9581;49.484;8.556;2024-01-10T03:22:30;-1.70;75.00
18898;DHT22;9581;49.484;8.556;2024-01-10T03:24:57;-1.70;74.80
18898;DHT22;9581;49.484;8.556;2024-01-10T03:27:23;-1.80;74.50
18898;DHT22;9581;49.484;8.556;2024-01-10T03:29:50;-1.70;76.10
18898;DHT22;9581;49.484;8.556;2024-01-10T03:32:17;-1.70;76.10
18898;DHT22;9581;49.484;8.556;2024-01-10T03:34:45;-1.70;76.60
18898;DHT22;9581;49.484;8.556;2024-01-10T03:37:11;-1.40;76.10
18898;DHT22;9581;49.484;8.556;2024-01-10T03:39:38;-1.30;75.50
18898;DHT22;9581;49.484;8.556;2024-01-10T03:42:05;-1.50;75.60
18898;DHT22;9581;49.484;8.556;2024-01-10T03:44:32;-1.70;75.60
18898;DHT22;9581;49.484;8.556;2024-01-10T03:46:58;-1.50;75.40
18898;DHT22;9581;49.484;8.556;2024-01-10T03:49:25;-1.50;75.30
18898;DHT22;9581;49.484;8.556;2024-01-10T03:51:53;-1.60;76.60
18898;DHT22;9581;49.484;8.556;2024-01-10T03:54:20;-1.50;76.60
18898;DHT22;9581;49.484;8.556;2024-01-10T03:56:46;-1.70;76.30
18898;DHT22;9581;49.484;8.556;2024-01-10T03:59:13;-1.80;77.30
18898;DHT22;9581;49.484;8.556;2024-01-10T04:01:39;-1.90;77.90
18898;DHT22;9581;49.484;8.556;2024-01-10T04:04:06;-1.90;78.10
18898;DHT22;9581;49.484;8.556;2024-01-10T04:06:33;-1.80;78.40
18898;DHT22;9581;49.484;8.556;2024-01-10T04:09:01;-1.80;77.80
18898;DHT22;9581;49.484;8.556;2024-01-10T04:11:28;-1.90;78.90
18898;DHT22;9581;49.484;8.556;2024-01-10T04:13:55;-2.10;79.00
18898;DHT22;9581;49.484;8.556;2024-01-10T04:16:21;-1.80;79.40
18898;DHT22;9581;49.484;8.556;2024-01-10T04:18:48;-1.80;79.30
18898;DHT22;9581;49.484;8.556;2024-01-10T04:21:15;-1.90;81.10
18898;DHT22;9581;49.484;8.556;2024-01-10T04:23:42;-1.90;81.50
18898;DHT22;9581;49.484;8.556;2024-01-10T04:26:10;-1.90;80.70
18898;DHT22;9581;49.484;8.556;2024-01-10T04:28:36;-2.10;80.90
18898;DHT22;9581;49.484;8.556;2024-01-10T04:31:05;-1.90;80.60
18898;DHT22;9581;49.484;8.556;2024-01-10T04:33:32;-2.00;82.20
18898;DHT22;9581;49.484;8.556;2024-01-10T04:35:58;-2.00;82.10
18898;DHT22;9581;49.484;8.556;2024-01-10T04:38:25;-2.00;81.40
18898;DHT22;9581;49.484;8.556;2024-01-10T04:40:52;-1.90;80.30
18898;DHT22;9581;49.484;8.556;2024-01-10T04:43:20;-2.00;80.40
18898;DHT22;9581;49.484;8.556;2024-01-10T04:45:46;-2.10;81.70
18898;DHT22;9581;49.484;8.556;2024-01-10T04:48:13;-2.00;81.80
18898;DHT22;9581;49.484;8.556;2024-01-10T04:50:40;-2.00;83.10
18898;DHT22;9581;49.484;8.556;2024-01-10T04:53:06;-2.10;83.10
18898;DHT22;9581;49.484;8.556;2024-01-10T04:55:33;-2.00;82.90
18898;DHT22;9581;49.484;8.556;2024-01-10T04:58:00;-1.90;82.50
18898;DHT22;9581;49.484;8.556;2024-01-10T05:00:28;-1.80;82.90
18898;DHT22;9581;49.484;8.556;2024-01-10T05:02:55;-2.00;83.50
18898;DHT22;9581;49.484;8.556;2024-01-10T05:05:23;-2.10;83.10
18898;DHT22;9581;49.484;8.556;2024-01-10T05:07:50;-2.20;82.90
18898;DHT22;9581;49.484;8.556;2024-01-10T05:10:17;-2.10;84.20
18898;DHT22;9581;49.484;8.556;2024-01-10T05:12:43;-2.20;83.00
18898;DHT22;9581;49.484;8.556;2024-01-10T05:15:10;-2.30;83.10
18898;DHT22;9581;49.484;8.556;2024-01-10T05:17:38;-2.20;83.60
18898;DHT22;9581;49.484;8.556;2024-01-10T05:20:06;-2.30;83.40
18898;DHT22;9581;49.484;8.556;2024-01-10T05:22:33;-2.40;83.40
18898;DHT22;9581;49.484;8.556;2024-01-10T05:25:00;-2.30;83.10
18898;DHT22;9581;49.484;8.556;2024-01-10T05:27:26;-2.10;82.10
18898;DHT22;9581;49.484;8.556;2024-01-10T05:29:53;-2.10;81.10
18898;DHT22;9581;49.484;8.556;2024-01-10T05:32:20;-2.20;82.30
18898;DHT22;9581;49.484;8.556;2024-01-10T05:34:48;-2.20;82.30
18898;DHT22;9581;49.484;8.556;2024-01-10T05:37:15;-2.30;82.90
18898;DHT22;9581;49.484;8.556;2024-01-10T05:39:41;-2.30;82.90
18898;DHT22;9581;49.484;8.556;2024-01-10T05:42:08;-2.40;83.30
18898;DHT22;9581;49.484;8.556;2024-01-10T05:44:35;-2.20;83.00
18898;DHT22;9581;49.484;8.556;2024-01-10T05:47:01;-1.90;82.00
18898;DHT22;9581;49.484;8.556;2024-01-10T05:49:28;-2.00;82.30
18898;DHT22;9581;49.484;8.556;2024-01-10T05:51:56;-2.20;82.90
18898;DHT22;9581;49.484;8.556;2024-01-10T05:54:23;-2.20;82.60
18898;DHT22;9581;49.484;8.556;2024-01-10T05:56:50;-2.20;83.00
18898;DHT22;9581;49.484;8.556;2024-01-10T05:59:16;-2.00;82.10
18898;DHT22;9581;49.484;8.556;2024-01-10T06:01:43;-2.00;82.30
18898;DHT22;9581;49.484;8.556;2024-01-10T06:04:10;-2.10;82.40
18898;DHT22;9581;49.484;8.556;2024-01-10T06:06:36;-2.20;82.60
18898;DHT22;9581;49.484;8.556;2024-01-10T06:09:04;-2.20;83.00
18898;DHT22;9581;49.484;8.556;2024-01-10T06:11:31;-2.20;83.50
18898;DHT22;9581;49.484;8.556;2024-01-10T06:13:58;-2.20;83.70
18898;DHT22;9581;49.484;8.556;2024-01-10T06:16:24;-2.20;83.30
18898;DHT22;9581;49.484;8.556;2024-01-10T06:18:51;-2.30;84.20
18898;DHT22;9581;49.484;8.556;2024-01-10T06:21:18;-2.30;84.60
18898;DHT22;9581;49.484;8.556;2024-01-10T06:23:45;-2.30;84.70
18898;DHT22;9581;49.484;8.556;2024-01-10T06:26:13;-2.30;83.90
18898;DHT22;9581;49.484;8.556;2024-01-10T06:28:40;-2.20;84.00
18898;DHT22;9581;49.484;8.556;2024-01-10T06:31:07;-2.20;84.60
18898;DHT22;9581;49.484;8.556;2024-01-10T06:33:34;-2.20;84.90
18898;DHT22;9581;49.484;8.556;2024-01-10T06:36:01;-2.10;85.20
18898;DHT22;9581;49.484;8.556;2024-01-10T06:38:27;-2.00;85.40
18898;DHT22;9581;49.484;8.556;2024-01-10T06:40:54;-2.00;85.40
18898;DHT22;9581;49.484;8.556;2024-01-10T06:43:22;-2.00;86.10
18898;DHT22;9581;49.484;8.556;2024-01-10T06:45:49;-2.10;86.20
18898;DHT22;9581;49.484;8.556;2024-01-10T06:48:16;-2.00;86.30
18898;DHT22;9581;49.484;8.556;2024-01-10T06:50:44;-1.90;85.70
18898;DHT22;9581;49.484;8.556;2024-01-10T06:53:13;-1.70;85.00
18898;DHT22;9581;49.484;8.556;2024-01-10T06:55:41;-1.80;85.20
18898;DHT22;9581;49.484;8.556;2024-01-10T06:58:08;-1.80;86.20
18898;DHT22;9581;49.484;8.556;2024-01-10T07:00:36;-1.80;87.20
18898;DHT22;9581;49.484;8.556;2024-01-10T07:03:04;-1.60;87.00
18898;DHT22;9581;49.484;8.556;2024-01-10T07:05:32;-1.60;86.20
18898;DHT22;9581;49.484;8.556;2024-01-10T07:07:59;-1.80;87.20
18898;DHT22;9581;49.484;8.556;2024-01-10T07:10:28;-1.80;87.20
18898;DHT22;9581;49.484;8.556;2024-01-10T07:12:55;-1.80;87.50
18898;DHT22;9581;49.484;8.556;2024-01-10T07:15:23;-1.70;86.40
18898;DHT22;9581;49.484;8.556;2024-01-10T07:17:51;-1.80;86.20
18898;DHT22;9581;49.484;8.556;2024-01-10T07:20:18;-1.70;86.10
18898;DHT22;9581;49.484;8.556;2024-01-10T07:22:45;-1.60;85.40
18898;DHT22;9581;49.484;8.556;2024-01-10T07:25:12;-1.60;86.20
18898;DHT22;9581;49.484;8.556;2024-01-10T07:27:39;-1.60;85.90
18898;DHT22;9581;49.484;8.556;2024-01-10T07:30:07;-1.50;86.00
18898;DHT22;9581;49.484;8.556;2024-01-10T07:32:39;-1.60;85.80
18898;DHT22;9581;49.484;8.556;2024-01-10T07:35:08;-1.70;86.10
18898;DHT22;9581;49.484;8.556;2024-01-10T07:37:35;-1.70;86.60
18898;DHT22;9581;49.484;8.556;2024-01-10T07:40:02;-1.60;86.30
18898;DHT22;9581;49.484;8.556;2024-01-10T07:42:30;-1.50;86.90
18898;DHT22;9581;49.484;8.556;2024-01-10T07:44:57;-1.60;86.10
18898;DHT22;9581;49.484;8.556;2024-01-10T07:47:24;-1.60;86.70
18898;DHT22;9581;49.484;8.556;2024-01-10T07:49:50;-1.30;86.90
18898;DHT22;9581;49.484;8.556;2024-01-10T07:52:19;-1.30;85.20
18898;DHT22;9581;49.484;8.556;2024-01-10T07:54:45;-1.40;85.40
18898;DHT22;9581;49.484;8.556;2024-01-10T07:57:13;-1.10;85.00
18898;DHT22;9581;49.484;8.556;2024-01-10T07:59:40;-1.30;85.70
18898;DHT22;9581;49.484;8.556;2024-01-10T08:02:06;-1.40;85.40
18898;DHT22;9581;49.484;8.556;2024-01-10T08:04:35;-1.20;84.60
18898;DHT22;9581;49.484;8.556;2024-01-10T08:07:02;-1.30;85.70
18898;DHT22;9581;49.484;8.556;2024-01-10T08:09:30;-1.20;86.30
18898;DHT22;9581;49.484;8.556;2024-01-10T08:11:57;-1.10;86.10
18898;DHT22;9581;49.484;8.556;2024-01-10T08:14:23;-1.20;87.20
18898;DHT22;9581;49.484;8.556;2024-01-10T08:16:50;-1.10;87.80
18898;DHT22;9581;49.484;8.556;2024-01-10T08:19:18;-0.90;86.50
18898;DHT22;9581;49.484;8.556;2024-01-10T08:21:45;-1.00;87.20
18898;DHT22;9581;49.484;8.556;2024-01-10T08:24:12;-1.00;87.80
18898;DHT22;9581;49.484;8.556;2024-01-10T08:26:40;-1.00;87.30
18898;DHT22;9581;49.484;8.556;2024-01-10T08:29:06;-1.00;87.30
18898;DHT22;9581;49.484;8.556;2024-01-10T08:31:33;-1.10;86.40
18898;DHT22;9581;49.484;8.556;2024-01-10T08:33:59;-1.20;86.90
18898;DHT22;9581;49.484;8.556;2024-01-10T08:36:26;-1.20;87.50
18898;DHT22;9581;49.484;8.556;2024-01-10T08:38:53;-1.00;87.80
18898;DHT22;9581;49.484;8.556;2024-01-10T08:41:20;-1.00;87.90
18898;DHT22;9581;49.484;8.556;2024-01-10T08:43:48;-0.90;87.40
18898;DHT22;9581;49.484;8.556;2024-01-10T08:46:15;-0.70;87.10
18898;DHT22;9581;49.484;8.556;2024-01-10T08:48:41;-0.60;87.10
18898;DHT22;9581;49.484;8.556;2024-01-10T08:51:08;-0.50;86.20
18898;DHT22;9581;49.484;8.556;2024-01-10T08:53:35;-0.50;87.10
18898;DHT22;9581;49.484;8.556;2024-01-10T08:56:02;-0.60;86.00
18898;DHT22;9581;49.484;8.556;2024-01-10T08:58:29;-0.50;87.20
18898;DHT22;9581;49.484;8.556;2024-01-10T09:00:57;-0.50;87.00
18898;DHT22;9581;49.484;8.556;2024-01-10T09:03:23;-0.60;86.00
18898;DHT22;9581;49.484;8.556;2024-01-10T09:05:50;-0.60;87.30
18898;DHT22;9581;49.484;8.556;2024-01-10T09:08:17;-0.50;87.20
18898;DHT22;9581;49.484;8.556;2024-01-10T09:10:43;-0.50;87.80
18898;DHT22;9581;49.484;8.556;2024-01-10T09:13:10;-0.40;87.50
18898;DHT22;9581;49.484;8.556;2024-01-10T09:15:37;0.10;87.60
18898;DHT22;9581;49.484;8.556;2024-01-10T09:18:05;0.10;87.50
18898;DHT22;9581;49.484;8.556;2024-01-10T09:20:31;0.00;87.80
18898;DHT22;9581;49.484;8.556;2024-01-10T09:22:58;0.00;87.00
18898;DHT22;9581;49.484;8.556;2024-01-10T09:25:26;0.30;87.70
18898;DHT22;9581;49.484;8.556;2024-01-10T09:27:52;0.40;87.50
18898;DHT22;9581;49.484;8.556;2024-01-10T09:30:19;0.70;87.40
18898;DHT22;9581;49.484;8.556;2024-01-10T09:32:46;0.60;87.50
18898;DHT22;9581;49.484;8.556;2024-01-10T09:35:14;0.70;87.00
18898;DHT22;9581;49.484;8.556;2024-01-10T09:37:41;0.70;87.20
18898;DHT22;9581;49.484;8.556;2024-01-10T09:40:09;0.80;87.20
18898;DHT22;9581;49.484;8.556;2024-01-10T09:42:38;0.80;87.40
18898;DHT22;9581;49.484;8.556;2024-01-10T09:45:06;1.10;87.20
18898;DHT22;9581;49.484;8.556;2024-01-10T09:47:36;1.30;87.20
18898;DHT22;9581;49.484;8.556;2024-01-10T09:50:05;2.10;86.60
18898;DHT22;9581;49.484;8.556;2024-01-10T09:52:39;3.30;84.40
18898;DHT22;9581;49.484;8.556;2024-01-10T09:55:08;4.80;82.50
18898;DHT22;9581;49.484;8.556;2024-01-10T09:57:36;4.50;77.90
18898;DHT22;9581;49.484;8.556;2024-01-10T10:00:04;4.30;76.60
18898;DHT22;9581;49.484;8.556;2024-01-10T10:02:38;3.70;77.90
18898;DHT22;9581;49.484;8.556;2024-01-10T10:05:09;3.20;79.40
18898;DHT22;9581;49.484;8.556;2024-01-10T10:07:45;5.70;78.60
18898;DHT22;9581;49.484;8.556;2024-01-10T10:10:12;6.60;74.80
18898;DHT22;9581;49.484;8.556;2024-01-10T10:12:43;7.90;72.80
18898;DHT22;9581;49.484;8.556;2024-01-10T10:15:12;8.10;71.70
18898;DHT22;9581;49.484;8.556;2024-01-10T10:17:40;7.40;68.50
18898;DHT22;9581;49.484;8.556;2024-01-10T10:20:13;6.50;68.90
18898;DHT22;9581;49.484;8.556;2024-01-10T10:22:40;8.50;68.70
18898;DHT22;9581;49.484;8.556;2024-01-10T10:25:15;11.40;63.50
18898;DHT22;9581;49.484;8.556;2024-01-10T10:27:42;11.80;60.70
18898;DHT22;9581;49.484;8.556;2024-01-10T10:30:09;11.50;59.70
18898;DHT22;9581;49.484;8.556;2024-01-10T10:32:37;11.60;57.40
18898;DHT22;9581;49.484;8.556;2024-01-10T10:35:06;13.30;56.70
18898;DHT22;9581;49.484;8.556;2024-01-10T10:37:34;13.60;53.10
18898;DHT22;9581;49.484;8.556;2024-01-10T10:40:01;13.50;53.20
18898;DHT22;9581;49.484;8.556;2024-01-10T10:42:31;13.40;50.80
18898;DHT22;9581;49.484;8.556;2024-01-10T10:45:02;13.60;51.30
18898;DHT22;9581;49.484;8.556;2024-01-10T10:47:31;11.80;49.60
18898;DHT22;9581;49.484;8.556;2024-01-10T10:50:03;11.40;51.80
18898;DHT22;9581;49.484;8.556;2024-01-10T10:52:30;10.60;51.50
18898;DHT22;9581;49.484;8.556;2024-01-10T10:54:58;7.90;53.60
18898;DHT22;9581;49.484;8.556;2024-01-10T10:57:26;5.80;57.00
18898;DHT22;9581;49.484;8.556;2024-01-10T10:59:55;6.10;56.90
18898;DHT22;9581;49.484;8.556;2024-01-10T11:02:23;5.20;58.50
18898;DHT22;9581;49.484;8.556;2024-01-10T11:04:50;4.40;60.90
18898;DHT22;9581;49.484;8.556;2024-01-10T11:07:20;3.90;63.70
18898;DHT22;9581;49.484;8.556;2024-01-10T11:09:48;3.70;63.50
18898;DHT22;9581;49.484;8.556;2024-01-10T11:12:23;3.90;62.40
18898;DHT22;9581;49.484;8.556;2024-01-10T11:15:07;4.50;62.30
18898;DHT22;9581;49.484;8.556;2024-01-10T11:17:57;4.60;62.40
18898;DHT22;9581;49.484;8.556;2024-01-10T11:20:47;4.40;63.80
18898;DHT22;9581;49.484;8.556;2024-01-10T11:23:37;4.70;63.00
18898;DHT22;9581;49.484;8.556;2024-01-10T11:26:06;4.30;63.50
18898;DHT22;9581;49.484;8.556;2024-01-10T11:28:33;4.40;64.30
18898;DHT22;9581;49.484;8.556;2024-01-10T11:31:01;4.20;65.00
18898;DHT22;9581;49.484;8.556;2024-01-10T11:33:32;3.80;65.50
18898;DHT22;9581;49.484;8.556;2024-01-10T11:36:09;3.80;66.60
18898;DHT22;9581;49.484;8.556;2024-01-10T11:38:45;4.50;65.90
18898;DHT22;9581;49.484;8.556;2024-01-10T11:41:20;4.30;64.80
18898;DHT22;9581;49.484;8.556;2024-01-10T11:46:52;4.10;63.50
18898;DHT22;9581;49.484;8.556;2024-01-10T11:49:21;3.90;64.30
18898;DHT22;9581;49.484;8.556;2024-01-10T11:51:49;4.00;65.20
18898;DHT22;9581;49.484;8.556;2024-01-10T11:54:40;3.40;66.90
18898;DHT22;9581;49.484;8.556;2024-01-10T11:57:09;3.00;66.90
18898;DHT22;9581;49.484;8.556;2024-01-10T11:59:37;3.30;67.90
18898;DHT22;9581;49.484;8.556;2024-01-10T12:02:05;3.00;68.30
18898;DHT22;9581;49.484;8.556;2024-01-10T12:04:32;3.00;68.50
18898;DHT22;9581;49.484;8.556;2024-01-10T12:07:01;3.50;68.20
18898;DHT22;9581;49.484;8.556;2024-01-10T12:09:28;3.60;67.10
18898;DHT22;9581;49.484;8.556;2024-01-10T12:11:55;3.50;67.00
18898;DHT22;9581;49.484;8.556;2024-01-10T12:14:22;3.10;67.70
18898;DHT22;9581;49.484;8.556;2024-01-10T12:16:51;2.90;69.10
18898;DHT22;9581;49.484;8.556;2024-01-10T12:19:19;2.80;68.10
18898;DHT22;9581;49.484;8.556;2024-01-10T12:21:45;3.00;68.20
18898;DHT22;9581;49.484;8.556;2024-01-10T12:24:13;2.60;69.70
18898;DHT22;9581;49.484;8.556;2024-01-10T12:26:43;2.60;70.10
18898;DHT22;9581;49.484;8.556;2024-01-10T12:29:11;2.60;70.00
18898;DHT22;9581;49.484;8.556;2024-01-10T12:31:38;2.50;70.70
18898;DHT22;9581;49.484;8.556;2024-01-10T12:34:07;2.70;69.80
18898;DHT22;9581;49.484;8.556;2024-01-10T12:36:36;3.20;69.50
18898;DHT22;9581;49.484;8.556;2024-01-10T12:39:03;3.30;68.50
18898;DHT22;9581;49.484;8.556;2024-01-10T12:41:29;2.60;70.70
18898;DHT22;9581;49.484;8.556;2024-01-10T12:43:59;2.80;70.50
18898;DHT22;9581;49.484;8.556;2024-01-10T12:46:28;2.70;71.00
18898;DHT22;9581;49.484;8.556;2024-01-10T12:48:59;2.40;70.70
18898;DHT22;9581;49.484;8.556;2024-01-10T12:51:27;2.50;70.60
18898;DHT22;9581;49.484;8.556;2024-01-10T12:53:58;2.50;70.70
18898;DHT22;9581;49.484;8.556;2024-01-10T12:56:26;2.60;70.80
18898;DHT22;9581;49.484;8.556;2024-01-10T12:58:53;2.50;72.30
18898;DHT22;9581;49.484;8.556;2024-01-10T13:01:20;2.80;71.10
18898;DHT22;9581;49.484;8.556;2024-01-10T13:03:47;2.70;71.00
18898;DHT22;9581;49.484;8.556;2024-01-10T13:06:14;2.90;71.10
18898;DHT22;9581;49.484;8.556;2024-01-10T13:08:41;2.60;71.30
18898;DHT22;9581;49.484;8.556;2024-01-10T13:11:09;2.30;72.70
18898;DHT22;9581;49.484;8.556;2024-01-10T13:13:36;2.20;72.60
18898;DHT22;9581;49.484;8.556;2024-01-10T13:16:03;2.70;71.90
18898;DHT22;9581;49.484;8.556;2024-01-10T13:18:30;2.90;71.10
18898;DHT22;9581;49.484;8.556;2024-01-10T13:20:57;2.50;72.30
18898;DHT22;9581;49.484;8.556;2024-01-10T13:23:24;2.80;71.30
18898;DHT22;9581;49.484;8.556;2024-01-10T13:25:50;3.00;71.20
18898;DHT22;9581;49.484;8.556;2024-01-10T13:28:19;2.90;70.80
18898;DHT22;9581;49.484;8.556;2024-01-10T13:30:46;2.50;72.30
18898;DHT22;9581;49.484;8.556;2024-01-10T13:33:12;2.20;74.20
18898;DHT22;9581;49.484;8.556;2024-01-10T13:35:39;2.00;74.80
18898;DHT22;9581;49.484;8.556;2024-01-10T13:38:05;2.10;74.20
18898;DHT22;9581;49.484;8.556;2024-01-10T13:40:32;2.20;73.90
18898;DHT22;9581;49.484;8.556;2024-01-10T13:43:00;2.10;74.90
18898;DHT22;9581;49.484;8.556;2024-01-10T13:45:29;2.30;75.40
18898;DHT22;9581;49.484;8.556;2024-01-10T13:47:56;2.40;74.60
18898;DHT22;9581;49.484;8.556;2024-01-10T13:50:22;2.80;73.40
18898;DHT22;9581;49.484;8.556;2024-01-10T13:52:50;2.80;72.40
18898;DHT22;9581;49.484;8.556;2024-01-10T13:55:19;2.80;71.80
18898;DHT22;9581;49.484;8.556;2024-01-10T13:57:46;2.50;73.90
18898;DHT22;9581;49.484;8.556;2024-01-10T14:00:13;2.50;73.00
18898;DHT22;9581;49.484;8.556;2024-01-10T14:02:41;2.50;73.80
18898;DHT22;9581;49.484;8.556;2024-01-10T14:05:08;2.40;75.30
18898;DHT22;9581;49.484;8.556;2024-01-10T14:07:35;2.20;75.60
18898;DHT22;9581;49.484;8.556;2024-01-10T14:10:03;2.10;77.00
18898;DHT22;9581;49.484;8.556;2024-01-10T14:12:30;2.10;76.10
18898;DHT22;9581;49.484;8.556;2024-01-10T14:14:56;2.00;76.40
18898;DHT22;9581;49.484;8.556;2024-01-10T14:17:25;2.10;75.50
18898;DHT22;9581;49.484;8.556;2024-01-10T14:19:53;2.10;76.40
18898;DHT22;9581;49.484;8.556;2024-01-10T14:22:20;2.20;76.70
18898;DHT22;9581;49.484;8.556;2024-01-10T14:24:49;2.20;74.70
18898;DHT22;9581;49.484;8.556;2024-01-10T14:27:16;2.00;76.70
18898;DHT22;9581;49.484;8.556;2024-01-10T14:29:42;1.90;76.70
18898;DHT22;9581;49.484;8.556;2024-01-10T14:32:09;1.90;76.90
18898;DHT22;9581;49.484;8.556;2024-01-10T14:34:39;1.90;77.70
18898;DHT22;9581;49.484;8.556;2024-01-10T14:37:08;1.80;77.60
18898;DHT22;9581;49.484;8.556;2024-01-10T14:39:35;1.80;77.70
18898;DHT22;9581;49.484;8.556;2024-01-10T14:42:05;2.00;76.40
18898;DHT22;9581;49.484;8.556;2024-01-10T14:44:32;2.00;76.10
18898;DHT22;9581;49.484;8.556;2024-01-10T14:46:59;1.90;76.90
18898;DHT22;9581;49.484;8.556;2024-01-10T14:49:25;2.00;75.90
18898;DHT22;9581;49.484;8.556;2024-01-10T14:51:52;1.90;76.40
18898;DHT22;9581;49.484;8.556;2024-01-10T14:54:20;2.00;78.30
18898;DHT22;9581;49.484;8.556;2024-01-10T14:56:47;2.10;77.20
18898;DHT22;9581;49.484;8.556;2024-01-10T14:59:14;2.30;76.60
18898;DHT22;9581;49.484;8.556;2024-01-10T15:01:44;2.20;78.40
18898;DHT22;9581;49.484;8.556;2024-01-10T15:04:10;2.10;77.90
18898;DHT22;9581;49.484;8.556;2024-01-10T15:06:42;1.80;77.60
18898;DHT22;9581;49.484;8.556;2024-01-10T15:09:09;1.90;78.70
18898;DHT22;9581;49.484;8.556;2024-01-10T15:11:39;1.50;77.60
18898;DHT22;9581;49.484;8.556;2024-01-10T15:14:06;1.80;80.50
18898;DHT22;9581;49.484;8.556;2024-01-10T15:16:33;1.70;80.30
18898;DHT22;9581;49.484;8.556;2024-01-10T15:19:00;1.90;80.00
18898;DHT22;9581;49.484;8.556;2024-01-10T15:21:27;1.90;80.60
18898;DHT22;9581;49.484;8.556;2024-01-10T15:23:54;1.80;81.40
18898;DHT22;9581;49.484;8.556;2024-01-10T15:26:20;1.70;81.70
18898;DHT22;9581;49.484;8.556;2024-01-10T15:28:49;1.40;82.00
18898;DHT22;9581;49.484;8.556;2024-01-10T15:31:17;1.60;83.00
18898;DHT22;9581;49.484;8.556;2024-01-10T15:33:44;1.70;82.60
18898;DHT22;9581;49.484;8.556;2024-01-10T15:36:11;1.40;82.50
18898;DHT22;9581;49.484;8.556;2024-01-10T15:38:39;1.40;84.30
18898;DHT22;9581;49.484;8.556;2024-01-10T15:41:06;1.20;84.00
18898;DHT22;9581;49.484;8.556;2024-01-10T15:43:34;1.10;85.60
18898;DHT22;9581;49.484;8.556;2024-01-10T15:46:02;1.20;85.10
18898;DHT22;9581;49.484;8.556;2024-01-10T15:48:29;1.00;84.30
18898;DHT22;9581;49.484;8.556;2024-01-10T15:50:55;0.90;84.70
18898;DHT22;9581;49.484;8.556;2024-01-10T15:53:22;0.70;84.60
18898;DHT22;9581;49.484;8.556;2024-01-10T15:55:49;0.50;84.60
18898;DHT22;9581;49.484;8.556;2024-01-10T15:58:16;0.70;84.80